sensor_id;sensor_type;location;lat;lon;timestamp;pressure;altitude;pressure_sealevel;temperature;humidity
38786;BME280;24535;45.508;12.252;2023-06-14T00:01:00;100976.19;;;23.58;56.63
38786;BME280;24535;45.508;12.252;2023-06-14T00:03:28;100979.06;;;23.57;56.87
38786;BME280;24535;45.508;12.252;2023-06-14T00:05:53;100978.22;;;23.56;56.78
38786;BME280;24535;45.508;12.252;2023-06-14T00:08:18;100975.53;;;23.56;56.69
38786;BME280;24535;45.508;12.252;2023-06-14T00:10:44;100982.56;;;23.57;56.73
38786;BME280;24535;45.508;12.252;2023-06-14T00:13:09;100973.88;;;23.55;57.17
38786;BME280;24535;45.508;12.252;2023-06-14T00:15:35;100983.78;;;23.55;56.82
38786;BME280;24535;45.508;12.252;2023-06-14T00:18:01;100982.28;;;23.52;56.88
38786;BME280;24535;45.508;12.252;2023-06-14T00:20:26;100975.41;;;23.50;57.10
38786;BME280;24535;45.508;12.252;2023-06-14T00:22:52;100970.22;;;23.48;56.94
38786;BME280;24535;45.508;12.252;2023-06-14T00:25:19;100970.03;;;23.50;57.18
38786;BME280;24535;45.508;12.252;2023-06-14T00:27:44;100973.09;;;23.47;57.15
38786;BME280;24535;45.508;12.252;2023-06-14T00:30:10;100969.75;;;23.44;57.32
38786;BME280;24535;45.508;12.252;2023-06-14T00:32:35;100957.31;;;23.43;57.26
38786;BME280;24535;45.508;12.252;2023-06-14T00:35:00;100952.78;;;23.44;56.91
38786;BME280;24535;45.508;12.252;2023-06-14T00:37:26;100955.66;;;23.42;57.07
38786;BME280;24535;45.508;12.252;2023-06-14T00:39:51;100955.19;;;23.39;56.93
38786;BME280;24535;45.508;12.252;2023-06-14T00:42:23;100948.16;;;23.38;57.19
38786;BME280;24535;45.508;12.252;2023-06-14T00:44:49;100943.75;;;23.37;57.04
38786;BME280;24535;45.508;12.252;2023-06-14T00:47:14;100943.28;;;23.33;57.57
38786;BME280;24535;45.508;12.252;2023-06-14T00:49:40;100939.75;;;23.33;57.31
38786;BME280;24535;45.508;12.252;2023-06-14T00:52:05;100936.44;;;23.31;57.14
38786;BME280;24535;45.508;12.252;2023-06-14T00:54:31;100931.88;;;23.31;57.80
38786;BME280;24535;45.508;12.252;2023-06-14T00:56:56;100924.38;;;23.27;57.64
38786;BME280;24535;45.508;12.252;2023-06-14T00:59:22;100930.78;;;23.26;57.60
38786;BME280;24535;45.508;12.252;2023-06-14T01:01:47;100935.47;;;23.24;58.07
38786;BME280;24535;45.508;12.252;2023-06-14T01:04:13;100933.63;;;23.24;57.67
38786;BME280;24535;45.508;12.252;2023-06-14T01:09:26;100930.38;;;23.29;57.52
38786;BME280;24535;45.508;12.252;2023-06-14T01:12:00;100932.72;;;23.32;57.68
38786;BME280;24535;45.508;12.252;2023-06-14T01:14:26;100931.88;;;23.31;57.57
38786;BME280;24535;45.508;12.252;2023-06-14T01:16:52;100929.19;;;23.31;57.52
38786;BME280;24535;45.508;12.252;2023-06-14T01:19:18;100927.53;;;23.30;57.52
38786;BME280;24535;45.508;12.252;2023-06-14T01:21:44;100929.19;;;23.31;57.51
38786;BME280;24535;45.508;12.252;2023-06-14T01:24:09;100927.69;;;23.29;57.45
38786;BME280;24535;45.508;12.252;2023-06-14T01:26:36;100918.16;;;23.26;57.73
38786;BME280;24535;45.508;12.252;2023-06-14T01:29:02;100918.31;;;23.25;57.39
38786;BME280;24535;45.508;12.252;2023-06-14T01:31:28;100919.34;;;23.24;58.14
38786;BME280;24535;45.508;12.252;2023-06-14T01:33:54;100915.00;;;23.23;58.06
38786;BME280;24535;45.508;12.252;2023-06-14T01:36:20;100913.13;;;23.23;57.64
38786;BME280;24535;45.508;12.252;2023-06-14T01:38:46;100908.59;;;23.24;58.08
38786;BME280;24535;45.508;12.252;2023-06-14T01:41:13;100910.44;;;23.23;57.59
38786;BME280;24535;45.508;12.252;2023-06-14T01:43:40;100908.78;;;23.22;57.81
38786;BME280;24535;45.508;12.252;2023-06-14T01:46:06;100901.72;;;23.21;57.55
38786;BME280;24535;45.508;12.252;2023-06-14T01:48:33;100900.25;;;23.18;57.79
38786;BME280;24535;45.508;12.252;2023-06-14T01:50:58;100901.28;;;23.17;58.30
38786;BME280;24535;45.508;12.252;2023-06-14T01:53:23;100905.97;;;23.15;58.31
38786;BME280;24535;45.508;12.252;2023-06-14T01:55:49;100909.50;;;23.16;58.15
38786;BME280;24535;45.508;12.252;2023-06-14T01:58:14;100898.75;;;23.16;58.33
38786;BME280;24535;45.508;12.252;2023-06-14T02:00:41;100908.66;;;23.15;58.31
38786;BME280;24535;45.508;12.252;2023-06-14T02:03:08;100905.16;;;23.15;57.94
38786;BME280;24535;45.508;12.252;2023-06-14T02:05:33;100899.78;;;23.15;58.32
38786;BME280;24535;45.508;12.252;2023-06-14T02:07:59;100901.44;;;23.16;58.35
38786;BME280;24535;45.508;12.252;2023-06-14T02:10:25;100900.41;;;23.17;58.14
38786;BME280;24535;45.508;12.252;2023-06-14T02:12:50;100896.88;;;23.16;58.16
38786;BME280;24535;45.508;12.252;2023-06-14T02:15:15;100898.59;;;23.17;58.09
38786;BME280;24535;45.508;12.252;2023-06-14T02:17:44;100904.25;;;23.23;58.17
38786;BME280;24535;45.508;12.252;2023-06-14T02:20:12;100892.28;;;23.25;58.12
38786;BME280;24535;45.508;12.252;2023-06-14T02:22:37;100896.66;;;23.26;57.60
38786;BME280;24535;45.508;12.252;2023-06-14T02:25:03;100889.59;;;23.25;57.69
38786;BME280;24535;45.508;12.252;2023-06-14T02:27:28;100885.22;;;23.24;57.97
38786;BME280;24535;45.508;12.252;2023-06-14T02:29:53;100890.59;;;23.24;57.67
38786;BME280;24535;45.508;12.252;2023-06-14T02:32:19;100888.94;;;23.23;57.65
38786;BME280;24535;45.508;12.252;2023-06-14T02:34:44;100888.94;;;23.23;58.00
38786;BME280;24535;45.508;12.252;2023-06-14T02:37:09;100884.19;;;23.25;58.27
38786;BME280;24535;45.508;12.252;2023-06-14T02:39:36;100879.50;;;23.27;57.51
38786;BME280;24535;45.508;12.252;2023-06-14T02:42:01;100884.53;;;23.30;57.37
38786;BME280;24535;45.508;12.252;2023-06-14T02:44:27;100890.38;;;23.34;57.81
38786;BME280;24535;45.508;12.252;2023-06-14T02:46:53;100891.84;;;23.36;57.60
38786;BME280;24535;45.508;12.252;2023-06-14T02:49:18;100886.75;;;23.41;57.61
38786;BME280;24535;45.508;12.252;2023-06-14T02:51:43;100891.75;;;23.44;57.59
38786;BME280;24535;45.508;12.252;2023-06-14T02:54:08;100890.72;;;23.45;57.26
38786;BME280;24535;45.508;12.252;2023-06-14T02:56:34;100888.72;;;23.48;57.30
38786;BME280;24535;45.508;12.252;2023-06-14T02:58:59;100888.91;;;23.46;57.30
38786;BME280;24535;45.508;12.252;2023-06-14T03:01:25;100898.63;;;23.47;57.31
38786;BME280;24535;45.508;12.252;2023-06-14T03:03:59;100895.75;;;23.49;57.43
38786;BME280;24535;45.508;12.252;2023-06-14T03:06:24;100899.47;;;23.48;56.98
38786;BME280;24535;45.508;12.252;2023-06-14T03:08:50;100896.13;;;23.45;57.24
38786;BME280;24535;45.508;12.252;2023-06-14T03:11:15;100891.97;;;23.43;57.02
38786;BME280;24535;45.508;12.252;2023-06-14T03:13:42;100888.59;;;23.41;57.38
38786;BME280;24535;45.508;12.252;2023-06-14T03:16:08;100892.31;;;23.40;57.68
38786;BME280;24535;45.508;12.252;2023-06-14T03:18:34;100895.28;;;23.45;57.43
38786;BME280;24535;45.508;12.252;2023-06-14T03:21:03;100889.53;;;23.48;57.31
38786;BME280;24535;45.508;12.252;2023-06-14T03:23:29;100887.53;;;23.50;57.30
38786;BME280;24535;45.508;12.252;2023-06-14T03:25:59;100891.22;;;23.49;57.19
38786;BME280;24535;45.508;12.252;2023-06-14T03:28:24;100887.88;;;23.47;57.07
38786;BME280;24535;45.508;12.252;2023-06-14T03:30:49;100892.59;;;23.45;57.09
38786;BME280;24535;45.508;12.252;2023-06-14T03:33:15;100891.13;;;23.42;57.01
38786;BME280;24535;45.508;12.252;2023-06-14T03:35:40;100888.78;;;23.39;56.82
38786;BME280;24535;45.508;12.252;2023-06-14T03:38:06;100898.06;;;23.37;57.16
38786;BME280;24535;45.508;12.252;2023-06-14T03:40:34;100900.38;;;23.40;57.63
38786;BME280;24535;45.508;12.252;2023-06-14T03:42:59;100905.22;;;23.44;57.70
38786;BME280;24535;45.508;12.252;2023-06-14T03:45:25;100899.00;;;23.44;57.62
38786;BME280;24535;45.508;12.252;2023-06-14T03:47:50;100908.91;;;23.43;57.50
38786;BME280;24535;45.508;12.252;2023-06-14T03:50:17;100906.72;;;23.47;57.44
38786;BME280;24535;45.508;12.252;2023-06-14T03:52:43;100911.06;;;23.48;57.39
38786;BME280;24535;45.508;12.252;2023-06-14T03:55:08;100911.91;;;23.49;57.55
38786;BME280;24535;45.508;12.252;2023-06-14T03:57:34;100905.03;;;23.46;57.63
38786;BME280;24535;45.508;12.252;2023-06-14T03:59:59;100911.25;;;23.47;57.39
38786;BME280;24535;45.508;12.252;2023-06-14T04:02:25;100917.28;;;23.49;57.64
38786;BME280;24535;45.508;12.252;2023-06-14T04:04:53;100913.75;;;23.48;57.28
38786;BME280;24535;45.508;12.252;2023-06-14T04:07:19;100919.59;;;23.52;57.52
38786;BME280;24535;45.508;12.252;2023-06-14T04:09:44;100916.56;;;23.55;56.90
38786;BME280;24535;45.508;12.252;2023-06-14T04:12:10;100914.91;;;23.54;56.79
38786;BME280;24535;45.508;12.252;2023-06-14T04:14:36;100913.41;;;23.51;57.00
38786;BME280;24535;45.508;12.252;2023-06-14T04:17:02;100911.91;;;23.49;56.95
38786;BME280;24535;45.508;12.252;2023-06-14T04:19:27;100911.25;;;23.47;57.14
38786;BME280;24535;45.508;12.252;2023-06-14T04:21:52;100914.09;;;23.45;57.31
38786;BME280;24535;45.508;12.252;2023-06-14T04:24:18;100910.59;;;23.44;57.19
38786;BME280;24535;45.508;12.252;2023-06-14T04:26:43;100912.44;;;23.44;57.42
38786;BME280;24535;45.508;12.252;2023-06-14T04:29:13;100912.72;;;23.49;57.49
38786;BME280;24535;45.508;12.252;2023-06-14T04:31:42;100914.22;;;23.52;57.53
38786;BME280;24535;45.508;12.252;2023-06-14T04:34:09;100917.38;;;23.55;57.68
38786;BME280;24535;45.508;12.252;2023-06-14T04:36:40;100917.84;;;23.59;57.03
38786;BME280;24535;45.508;12.252;2023-06-14T04:39:06;100927.59;;;23.60;57.04
38786;BME280;24535;45.508;12.252;2023-06-14T04:41:32;100921.19;;;23.61;57.18
38786;BME280;24535;45.508;12.252;2023-06-14T04:43:57;100926.03;;;23.65;57.08
38786;BME280;24535;45.508;12.252;2023-06-14T04:46:26;100929.19;;;23.69;56.92
38786;BME280;24535;45.508;12.252;2023-06-14T04:48:53;100931.53;;;23.72;56.81
38786;BME280;24535;45.508;12.252;2023-06-14T04:51:19;100930.97;;;23.77;56.67
38786;BME280;24535;45.508;12.252;2023-06-14T04:53:47;100931.44;;;23.80;56.66
38786;BME280;24535;45.508;12.252;2023-06-14T04:56:14;100933.78;;;23.83;56.45
38786;BME280;24535;45.508;12.252;2023-06-14T04:58:39;100940.81;;;23.84;56.53
38786;BME280;24535;45.508;12.252;2023-06-14T05:01:05;100941.09;;;23.89;56.59
38786;BME280;24535;45.508;12.252;2023-06-14T05:03:30;100942.88;;;23.97;56.55
38786;BME280;24535;45.508;12.252;2023-06-14T05:05:56;100940.09;;;24.05;56.59
38786;BME280;24535;45.508;12.252;2023-06-14T05:08:22;100938.31;;;24.12;56.46
38786;BME280;24535;45.508;12.252;2023-06-14T05:10:51;100945.28;;;24.22;56.27
38786;BME280;24535;45.508;12.252;2023-06-14T05:13:16;100935.22;;;24.30;56.07
38786;BME280;24535;45.508;12.252;2023-06-14T05:15:42;100949.28;;;24.40;55.89
38786;BME280;24535;45.508;12.252;2023-06-14T05:18:07;100956.22;;;24.50;55.85
38786;BME280;24535;45.508;12.252;2023-06-14T05:20:34;100957.78;;;24.59;55.15
38786;BME280;24535;45.508;12.252;2023-06-14T05:23:02;100963.06;;;24.67;55.20
38786;BME280;24535;45.508;12.252;2023-06-14T05:25:27;100958.41;;;24.76;54.96
38786;BME280;24535;45.508;12.252;2023-06-14T05:27:53;100965.09;;;24.80;54.94
38786;BME280;24535;45.508;12.252;2023-06-14T05:30:18;100967.59;;;24.81;54.64
38786;BME280;24535;45.508;12.252;2023-06-14T05:32:43;100967.59;;;24.81;54.24
38786;BME280;24535;45.508;12.252;2023-06-14T05:35:09;100959.13;;;24.84;54.61
38786;BME280;24535;45.508;12.252;2023-06-14T05:43:41;100962.47;;;24.86;53.32
38786;BME280;24535;45.508;12.252;2023-06-14T05:46:06;100972.25;;;24.87;53.50
38786;BME280;24535;45.508;12.252;2023-06-14T05:48:31;100971.66;;;24.92;53.82
38786;BME280;24535;45.508;12.252;2023-06-14T05:50:56;100975.66;;;24.96;53.71
38786;BME280;24535;45.508;12.252;2023-06-14T05:53:22;100983.53;;;24.98;53.17
38786;BME280;24535;45.508;12.252;2023-06-14T05:55:47;100981.09;;;25.03;53.36
38786;BME280;24535;45.508;12.252;2023-06-14T05:58:12;100976.16;;;25.06;53.45
38786;BME280;24535;45.508;12.252;2023-06-14T06:00:38;100985.06;;;25.07;52.98
38786;BME280;24535;45.508;12.252;2023-06-14T06:03:04;100991.28;;;25.07;52.82
38786;BME280;24535;45.508;12.252;2023-06-14T06:05:30;100989.47;;;25.08;52.58
38786;BME280;24535;45.508;12.252;2023-06-14T06:07:55;100991.16;;;25.09;52.61
38786;BME280;24535;45.508;12.252;2023-06-14T06:10:21;100997.84;;;25.13;52.62
38786;BME280;24535;45.508;12.252;2023-06-14T06:18:14;100991.94;;;25.24;52.69
38786;BME280;24535;45.508;12.252;2023-06-14T06:20:39;100985.88;;;25.22;51.93
38786;BME280;24535;45.508;12.252;2023-06-14T06:23:04;100991.06;;;25.24;52.25
38786;BME280;24535;45.508;12.252;2023-06-14T06:25:29;100998.53;;;25.22;52.28
38786;BME280;24535;45.508;12.252;2023-06-14T06:27:57;101007.47;;;25.22;52.50
38786;BME280;24535;45.508;12.252;2023-06-14T06:30:22;101004.38;;;25.25;52.52
38786;BME280;24535;45.508;12.252;2023-06-14T06:32:47;101004.63;;;25.30;52.86
38786;BME280;24535;45.508;12.252;2023-06-14T06:35:13;101002.16;;;25.29;52.44
38786;BME280;24535;45.508;12.252;2023-06-14T06:37:38;101004.25;;;25.33;52.71
38786;BME280;24535;45.508;12.252;2023-06-14T06:40:04;101002.63;;;25.39;52.44
38786;BME280;24535;45.508;12.252;2023-06-14T06:42:31;101012.66;;;25.45;52.20
38786;BME280;24535;45.508;12.252;2023-06-14T06:44:56;101006.03;;;25.48;52.30
38786;BME280;24535;45.508;12.252;2023-06-14T06:47:21;101003.63;;;25.53;52.45
38786;BME280;24535;45.508;12.252;2023-06-14T06:49:47;101010.09;;;25.58;51.91
38786;BME280;24535;45.508;12.252;2023-06-14T06:52:13;101002.66;;;25.60;52.02
38786;BME280;24535;45.508;12.252;2023-06-14T06:54:38;101004.09;;;25.63;52.28
38786;BME280;24535;45.508;12.252;2023-06-14T06:57:04;101003.50;;;25.68;52.12
38786;BME280;24535;45.508;12.252;2023-06-14T06:59:30;101005.00;;;25.70;51.39
38786;BME280;24535;45.508;12.252;2023-06-14T07:01:56;100999.38;;;25.72;51.42
38786;BME280;24535;45.508;12.252;2023-06-14T07:04:21;101007.09;;;25.75;51.24
38786;BME280;24535;45.508;12.252;2023-06-14T07:06:47;101002.81;;;25.80;51.23
38786;BME280;24535;45.508;12.252;2023-06-14T07:09:12;101001.00;;;25.87;51.26
38786;BME280;24535;45.508;12.252;2023-06-14T07:11:39;101005.63;;;25.94;51.18
38786;BME280;24535;45.508;12.252;2023-06-14T07:17:07;101012.22;;;26.19;50.78
38786;BME280;24535;45.508;12.252;2023-06-14T07:19:33;101012.56;;;26.37;50.18
38786;BME280;24535;45.508;12.252;2023-06-14T07:22:10;101012.03;;;26.55;49.87
38786;BME280;24535;45.508;12.252;2023-06-14T07:24:36;101007.50;;;26.69;47.87
38786;BME280;24535;45.508;12.252;2023-06-14T07:27:01;101011.91;;;26.77;47.38
38786;BME280;24535;45.508;12.252;2023-06-14T07:29:28;101006.75;;;26.82;47.31
38786;BME280;24535;45.508;12.252;2023-06-14T07:31:53;101013.00;;;26.89;47.31
38786;BME280;24535;45.508;12.252;2023-06-14T07:34:19;101009.88;;;26.92;46.83
38786;BME280;24535;45.508;12.252;2023-06-14T07:36:44;101011.34;;;26.95;46.72
38786;BME280;24535;45.508;12.252;2023-06-14T07:39:10;101007.22;;;26.99;46.99
38786;BME280;24535;45.508;12.252;2023-06-14T07:41:38;101008.31;;;27.11;47.05
38786;BME280;24535;45.508;12.252;2023-06-14T07:44:03;101014.59;;;27.45;47.72
38786;BME280;24535;45.508;12.252;2023-06-14T07:46:29;101007.53;;;27.97;47.34
38786;BME280;24535;45.508;12.252;2023-06-14T07:51:31;101008.97;;;29.22;45.73
38786;BME280;24535;45.508;12.252;2023-06-14T07:53:56;101012.97;;;29.76;43.65
38786;BME280;24535;45.508;12.252;2023-06-14T07:56:21;101021.91;;;30.27;43.11
38786;BME280;24535;45.508;12.252;2023-06-14T07:58:48;101020.53;;;30.73;42.41
38786;BME280;24535;45.508;12.252;2023-06-14T08:01:13;101015.97;;;31.15;41.98
38786;BME280;24535;45.508;12.252;2023-06-14T08:03:38;101013.16;;;31.52;41.11
38786;BME280;24535;45.508;12.252;2023-06-14T08:06:04;101012.22;;;31.82;39.85
38786;BME280;24535;45.508;12.252;2023-06-14T08:08:30;101017.09;;;32.03;39.48
38786;BME280;24535;45.508;12.252;2023-06-14T08:10:55;101014.72;;;32.18;38.93
38786;BME280;24535;45.508;12.252;2023-06-14T08:13:21;101024.78;;;32.30;39.15
38786;BME280;24535;45.508;12.252;2023-06-14T08:15:46;101025.00;;;32.28;36.81
38786;BME280;24535;45.508;12.252;2023-06-14T08:18:11;101023.59;;;32.25;38.14
38786;BME280;24535;45.508;12.252;2023-06-14T08:20:37;101017.44;;;32.18;37.75
38786;BME280;24535;45.508;12.252;2023-06-14T08:23:02;101020.19;;;32.18;38.06
38786;BME280;24535;45.508;12.252;2023-06-14T08:25:29;101019.25;;;32.13;38.32
38786;BME280;24535;45.508;12.252;2023-06-14T08:27:54;101025.63;;;32.07;37.73
38786;BME280;24535;45.508;12.252;2023-06-14T08:30:19;101024.19;;;32.04;39.35
38786;BME280;24535;45.508;12.252;2023-06-14T08:32:45;101022.66;;;31.96;38.69
38786;BME280;24535;45.508;12.252;2023-06-14T08:35:10;101033.25;;;31.93;39.28
38786;BME280;24535;45.508;12.252;2023-06-14T08:37:40;101038.31;;;31.89;37.70
38786;BME280;24535;45.508;12.252;2023-06-14T08:40:13;101028.47;;;31.88;38.95
38786;BME280;24535;45.508;12.252;2023-06-14T08:42:42;101028.72;;;31.87;38.82
38786;BME280;24535;45.508;12.252;2023-06-14T08:45:20;101029.16;;;31.84;38.87
38786;BME280;24535;45.508;12.252;2023-06-14T08:47:47;101030.94;;;31.78;38.32
38786;BME280;24535;45.508;12.252;2023-06-14T08:50:17;101037.91;;;31.74;39.28
38786;BME280;24535;45.508;12.252;2023-06-14T08:52:45;101040.41;;;31.75;38.65
38786;BME280;24535;45.508;12.252;2023-06-14T08:55:15;101036.50;;;31.71;39.40
38786;BME280;24535;45.508;12.252;2023-06-14T08:57:42;101037.31;;;31.72;38.84
38786;BME280;24535;45.508;12.252;2023-06-14T09:00:08;101046.56;;;31.71;39.04
38786;BME280;24535;45.508;12.252;2023-06-14T09:02:38;101043.38;;;31.74;38.71
38786;BME280;24535;45.508;12.252;2023-06-14T09:05:07;101043.25;;;31.69;38.98
38786;BME280;24535;45.508;12.252;2023-06-14T09:07:33;101032.47;;;31.62;38.89
38786;BME280;24535;45.508;12.252;2023-06-14T09:10:11;101038.88;;;31.56;38.63
38786;BME280;24535;45.508;12.252;2023-06-14T09:15:46;101038.63;;;31.27;38.48
38786;BME280;24535;45.508;12.252;2023-06-14T09:18:14;101027.09;;;31.14;38.85
38786;BME280;24535;45.508;12.252;2023-06-14T09:20:40;101036.53;;;30.99;38.49
38786;BME280;24535;45.508;12.252;2023-06-14T09:23:06;101036.94;;;30.85;39.18
38786;BME280;24535;45.508;12.252;2023-06-14T09:25:32;101033.91;;;30.74;39.26
38786;BME280;24535;45.508;12.252;2023-06-14T09:27:57;101037.97;;;30.65;39.29
38786;BME280;24535;45.508;12.252;2023-06-14T09:30:22;101033.66;;;30.58;39.81
38786;BME280;24535;45.508;12.252;2023-06-14T09:33:33;101043.19;;;30.48;38.51
38786;BME280;24535;45.508;12.252;2023-06-14T09:35:40;101049.19;;;30.39;40.19
38786;BME280;24535;45.508;12.252;2023-06-14T09:38:05;101055.13;;;30.29;39.72
38786;BME280;24535;45.508;12.252;2023-06-14T09:40:35;101051.63;;;30.22;39.74
38786;BME280;24535;45.508;12.252;2023-06-14T09:43:06;101046.09;;;30.10;40.08
38786;BME280;24535;45.508;12.252;2023-06-14T09:45:34;101056.63;;;30.00;39.78
38786;BME280;24535;45.508;12.252;2023-06-14T09:48:00;101047.94;;;29.91;40.58
38786;BME280;24535;45.508;12.252;2023-06-14T09:50:26;101054.72;;;29.82;40.98
38786;BME280;24535;45.508;12.252;2023-06-14T09:52:52;101053.09;;;29.74;40.02
38786;BME280;24535;45.508;12.252;2023-06-14T09:55:17;101050.66;;;29.66;41.21
38786;BME280;24535;45.508;12.252;2023-06-14T09:57:44;101052.59;;;29.59;41.08
38786;BME280;24535;45.508;12.252;2023-06-14T10:00:10;101047.78;;;29.54;41.26
38786;BME280;24535;45.508;12.252;2023-06-14T10:02:38;101046.59;;;29.44;41.21
38786;BME280;24535;45.508;12.252;2023-06-14T10:05:04;101039.56;;;29.36;41.13
38786;BME280;24535;45.508;12.252;2023-06-14T10:10:22;101034.47;;;29.21;41.78
38786;BME280;24535;45.508;12.252;2023-06-14T10:12:47;101045.94;;;29.17;41.43
38786;BME280;24535;45.508;12.252;2023-06-14T10:15:23;101040.13;;;29.13;41.31
38786;BME280;24535;45.508;12.252;2023-06-14T10:17:54;101032.84;;;29.07;41.53
38786;BME280;24535;45.508;12.252;2023-06-14T10:23:00;101025.59;;;29.01;41.11
38786;BME280;24535;45.508;12.252;2023-06-14T10:25:27;101030.78;;;28.96;40.76
38786;BME280;24535;45.508;12.252;2023-06-14T10:28:01;101026.41;;;28.95;40.92
38786;BME280;24535;45.508;12.252;2023-06-14T10:30:27;101018.28;;;28.95;40.84
38786;BME280;24535;45.508;12.252;2023-06-14T10:33:25;101024.75;;;28.94;40.81
38786;BME280;24535;45.508;12.252;2023-06-14T10:35:43;101021.00;;;28.95;41.02
38786;BME280;24535;45.508;12.252;2023-06-14T10:38:10;101010.56;;;28.92;41.05
38786;BME280;24535;45.508;12.252;2023-06-14T10:40:36;101011.84;;;28.89;40.26
38786;BME280;24535;45.508;12.252;2023-06-14T10:43:20;101015.59;;;28.88;41.16
38786;BME280;24535;45.508;12.252;2023-06-14T10:48:30;101002.69;;;28.83;41.32
38786;BME280;24535;45.508;12.252;2023-06-14T10:51:04;101000.59;;;28.86;41.54
38786;BME280;24535;45.508;12.252;2023-06-14T10:53:30;101007.91;;;28.85;41.25
38786;BME280;24535;45.508;12.252;2023-06-14T10:56:07;101003.09;;;28.87;41.10
38786;BME280;24535;45.508;12.252;2023-06-14T10:58:33;101005.81;;;28.87;41.30
38786;BME280;24535;45.508;12.252;2023-06-14T11:00:58;101007.69;;;28.87;41.21
38786;BME280;24535;45.508;12.252;2023-06-14T11:03:43;101000.59;;;28.86;41.02
38786;BME280;24535;45.508;12.252;2023-06-14T11:06:19;101000.59;;;28.86;41.34
38786;BME280;24535;45.508;12.252;2023-06-14T11:11:15;101003.97;;;28.81;41.44
38786;BME280;24535;45.508;12.252;2023-06-14T11:13:43;101001.44;;;28.79;41.71
38786;BME280;24535;45.508;12.252;2023-06-14T11:16:16;100998.56;;;28.74;41.96
38786;BME280;24535;45.508;12.252;2023-06-14T11:18:41;100996.50;;;28.70;41.54
38786;BME280;24535;45.508;12.252;2023-06-14T11:21:10;100997.75;;;28.67;41.21
38786;BME280;24535;45.508;12.252;2023-06-14T11:23:35;100984.44;;;28.66;41.07
38786;BME280;24535;45.508;12.252;2023-06-14T11:26:01;100987.34;;;28.64;41.04
38786;BME280;24535;45.508;12.252;2023-06-14T11:28:39;100980.25;;;28.63;41.17
38786;BME280;24535;45.508;12.252;2023-06-14T11:31:05;100980.69;;;28.60;41.87
38786;BME280;24535;45.508;12.252;2023-06-14T11:33:30;100976.72;;;28.56;41.84
38786;BME280;24535;45.508;12.252;2023-06-14T11:35:56;100978.84;;;28.54;42.29
38786;BME280;24535;45.508;12.252;2023-06-14T11:38:21;100974.25;;;28.54;41.98
38786;BME280;24535;45.508;12.252;2023-06-14T11:40:47;100979.06;;;28.52;42.32
38786;BME280;24535;45.508;12.252;2023-06-14T11:43:12;100975.50;;;28.52;42.43
38786;BME280;24535;45.508;12.252;2023-06-14T11:51:51;100974.06;;;28.49;40.99
38786;BME280;24535;45.508;12.252;2023-06-14T11:54:18;100973.25;;;28.49;41.82
38786;BME280;24535;45.508;12.252;2023-06-14T11:56:43;100965.53;;;28.46;41.94
38786;BME280;24535;45.508;12.252;2023-06-14T11:59:08;100955.75;;;28.45;41.81
38786;BME280;24535;45.508;12.252;2023-06-14T12:01:35;100960.53;;;28.43;41.81
38786;BME280;24535;45.508;12.252;2023-06-14T12:04:01;100956.16;;;28.42;42.35
38786;BME280;24535;45.508;12.252;2023-06-14T12:06:35;100946.13;;;28.35;42.50
38786;BME280;24535;45.508;12.252;2023-06-14T12:09:04;100942.59;;;28.35;42.57
38786;BME280;24535;45.508;12.252;2023-06-14T12:11:32;100946.59;;;28.32;42.59
38786;BME280;24535;45.508;12.252;2023-06-14T12:13:58;100940.75;;;28.29;42.47
38786;BME280;24535;45.508;12.252;2023-06-14T12:16:29;100936.78;;;28.31;42.24
38786;BME280;24535;45.508;12.252;2023-06-14T12:18:55;100941.16;;;28.32;42.41
38786;BME280;24535;45.508;12.252;2023-06-14T12:21:22;100933.22;;;28.31;42.05
38786;BME280;24535;45.508;12.252;2023-06-14T12:23:48;100928.88;;;28.30;42.05
38786;BME280;24535;45.508;12.252;2023-06-14T12:26:15;100937.41;;;28.33;41.79
38786;BME280;24535;45.508;12.252;2023-06-14T12:28:41;100937.84;;;28.37;40.99
38786;BME280;24535;45.508;12.252;2023-06-14T12:31:08;100934.06;;;28.38;41.20
38786;BME280;24535;45.508;12.252;2023-06-14T12:33:33;100927.59;;;28.39;41.66
38786;BME280;24535;45.508;12.252;2023-06-14T12:35:59;100932.19;;;28.39;41.54
38786;BME280;24535;45.508;12.252;2023-06-14T12:38:24;100922.19;;;28.39;42.43
38786;BME280;24535;45.508;12.252;2023-06-14T12:40:49;100921.34;;;28.39;42.16
38786;BME280;24535;45.508;12.252;2023-06-14T12:43:15;100922.19;;;28.39;42.43
38786;BME280;24535;45.508;12.252;2023-06-14T12:45:40;100932.19;;;28.39;42.96
38786;BME280;24535;45.508;12.252;2023-06-14T12:48:05;100920.31;;;28.40;42.97
38786;BME280;24535;45.508;12.252;2023-06-14T12:50:31;100927.81;;;28.38;43.30
38786;BME280;24535;45.508;12.252;2023-06-14T12:52:56;100927.00;;;28.37;43.96
38786;BME280;24535;45.508;12.252;2023-06-14T12:55:21;100928.88;;;28.37;43.33
38786;BME280;24535;45.508;12.252;2023-06-14T12:57:47;100926.56;;;28.33;43.89
38786;BME280;24535;45.508;12.252;2023-06-14T13:00:14;100926.78;;;28.32;44.05
38786;BME280;24535;45.508;12.252;2023-06-14T13:05:17;100923.28;;;28.25;44.14
38786;BME280;24535;45.508;12.252;2023-06-14T13:07:43;100930.56;;;28.24;44.38
38786;BME280;24535;45.508;12.252;2023-06-14T13:10:09;100924.09;;;28.25;44.78
38786;BME280;24535;45.508;12.252;2023-06-14T13:12:34;100920.34;;;28.26;44.51
38786;BME280;24535;45.508;12.252;2023-06-14T13:15:00;100934.72;;;28.27;44.67
38786;BME280;24535;45.508;12.252;2023-06-14T13:17:25;100930.56;;;28.24;44.93
38786;BME280;24535;45.508;12.252;2023-06-14T13:19:51;100927.88;;;28.24;44.70